Time;durP1;ratioP1;P1;durP2;ratioP2;P2;SDS_P1;SDS_P2;PMS_P1;PMS_P2;Temp;Humidity;BMP_temperature;BMP_pressure;BME280_temperature;BME280_humidity;BME280_pressure;Samples;Min_cycle;Max_cycle;Signal;HPM_P1;HPM_P2
2021/11/09 00:01:41;;;;;;;;;;;;;;;7.08;82.49;97944.22;107861;1277;59263;-64
2021/11/09 00:04:12;;;;;;;9.80;7.80;;;;;;;7.09;82.23;97945.20;107570;1279;59006;-64
2021/11/09 00:06:46;;;;;;;11.60;8.80;;;;;;;7.10;82.42;97951.39;107702;1276;71332;-64
2021/11/09 00:09:17;;;;;;;11.80;7.90;;;;;;;7.11;82.63;97951.70;107597;1279;68677;-64
2021/11/09 00:11:47;;;;;;;10.90;8.30;;;;;;;7.11;82.68;97953.60;107754;1279;69530;-64
2021/11/09 00:14:17;;;;;;;12.60;9.40;;;;;;;7.11;82.79;97952.22;107684;1279;58931;-64
2021/11/09 00:16:47;;;;;;;12.10;8.20;;;;;;;7.10;82.88;97948.80;107748;1275;59366;-63
2021/11/09 00:19:17;;;;;;;15.30;10.80;;;;;;;7.08;82.88;97949.42;107739;1279;70215;-64
2021/11/09 00:21:48;;;;;;;12.70;8.60;;;;;;;7.07;82.91;97948.63;107746;1279;67700;-64
2021/11/09 00:24:18;;;;;;;;;;;;;;;7.06;82.86;97957.30;107646;1275;69442;-64
2021/11/09 00:26:48;;;;;;;11.90;8.70;;;;;;;7.06;82.89;97959.90;107700;1279;58919;-64
2021/11/09 00:29:18;;;;;;;;;;;;;;;7.05;82.87;97957.55;107779;1278;58910;-63
2021/11/09 00:31:48;;;;;;;9.80;7.80;;;;;;;7.02;82.90;97960.46;107626;1277;70183;-64
2021/11/09 00:34:19;;;;;;;13.00;9.00;;;;;;;7.01;82.85;97961.19;107730;1278;68812;-65
2021/11/09 00:36:49;;;;;;;12.30;9.10;;;;;;;7.00;82.94;97958.11;107864;1276;69388;-65
2021/11/09 00:39:19;;;;;;;12.80;9.00;;;;;;;7.00;82.90;97957.79;107871;1278;59271;-65
2021/11/09 00:41:50;;;;;;;11.90;9.00;;;;;;;7.01;82.99;97954.80;107596;1279;58983;-65
2021/11/09 00:44:20;;;;;;;14.40;9.40;;;;;;;7.01;83.05;97952.21;107821;1275;69361;-65
2021/11/09 00:46:53;;;;;;;13.10;8.80;;;;;;;7.00;83.03;97949.34;107736;1277;67045;-65
2021/11/09 00:49:24;;;;;;;15.20;12.00;;;;;;;6.99;83.28;97945.23;107744;1275;69272;-65
2021/11/09 00:51:56;;;;;;;14.40;10.50;;;;;;;6.96;83.91;97948.10;107715;1275;58985;-65
2021/11/09 00:54:26;;;;;;;23.60;15.70;;;;;;;6.94;83.87;97955.17;107554;1279;58954;-65
2021/11/09 00:56:56;;;;;;;16.50;11.90;;;;;;;6.90;84.33;97958.46;107696;1279;70769;-66
2021/11/09 00:59:27;;;;;;;13.40;9.70;;;;;;;6.88;83.81;97957.86;107618;1278;67965;-64
2021/11/09 01:01:58;;;;;;;15.70;10.10;;;;;;;6.88;83.57;97960.10;107815;1278;68467;-65
2021/11/09 01:04:29;;;;;;;16.80;10.80;;;;;;;6.87;84.50;97964.84;107555;1281;58963;-65
2021/11/09 01:07:00;;;;;;;22.00;14.90;;;;;;;6.85;84.66;97966.17;107709;1276;58897;-63
2021/11/09 01:09:30;;;;;;;23.80;16.90;;;;;;;6.72;86.23;97965.77;107569;1275;70026;-63
2021/11/09 01:12:01;;;;;;;22.90;15.00;;;;;;;6.67;86.78;97969.33;107607;1278;67881;-64
2021/11/09 01:14:31;;;;;;;17.10;12.40;;;;;;;6.66;86.55;97968.31;107909;1276;69465;-64
2021/11/09 01:17:00;;;;;;;;;;;;;;;6.68;85.86;97962.20;107815;1278;58886;-64
2021/11/09 01:19:33;;;;;;;15.40;11.10;;;;;;;6.71;85.26;97961.33;107633;1278;58915;-64
2021/11/09 01:22:05;;;;;;;12.60;8.60;;;;;;;6.73;85.44;97958.46;107648;1278;69988;-64
2021/11/09 01:24:35;;;;;;;16.40;9.30;;;;;;;6.75;85.39;97953.50;107614;1278;67496;-64
2021/11/09 01:27:06;;;;;;;17.00;12.00;;;;;;;6.76;85.53;97951.35;107795;1276;69246;-64
2021/11/09 01:29:37;;;;;;;15.10;11.50;;;;;;;6.78;85.26;97948.34;107631;1278;58980;-65
2021/11/09 01:32:07;;;;;;;14.00;9.40;;;;;;;6.78;85.00;97947.96;107761;1275;58970;-64
2021/11/09 01:34:38;;;;;;;11.20;8.00;;;;;;;6.79;84.73;97946.17;107757;1275;69732;-65
2021/11/09 01:37:09;;;;;;;9.20;6.20;;;;;;;6.81;84.43;97947.15;107866;1276;68295;-65
2021/11/09 01:39:39;;;;;;;13.30;9.30;;;;;;;6.82;84.09;97942.58;107893;1276;68696;-64
2021/11/09 01:42:09;;;;;;;17.20;12.40;;;;;;;6.81;84.48;97938.84;107802;1277;58972;-64
2021/11/09 01:44:40;;;;;;;16.00;11.90;;;;;;;6.77;85.23;97935.74;107598;1278;58890;-65
2021/11/09 01:47:11;;;;;;;14.40;8.90;;;;;;;6.76;84.93;97934.56;107890;1275;70726;-64
2021/11/09 01:49:42;;;;;;;12.40;8.10;;;;;;;6.76;84.76;97935.42;107839;1276;67753;-64
2021/11/09 01:52:13;;;;;;;13.50;9.70;;;;;;;6.77;84.37;97934.19;107650;1278;69556;-64
2021/11/09 01:54:45;;;;;;;11.90;7.10;;;;;;;6.78;84.27;97935.52;107752;1275;58922;-65
2021/11/09 01:57:15;;;;;;;14.20;10.00;;;;;;;6.79;83.89;97934.91;107910;1275;58825;-65
2021/11/09 01:59:48;;;;;;;10.20;7.20;;;;;;;6.80;83.68;97938.17;107901;1275;69950;-64
2021/11/09 02:02:20;;;;;;;12.20;8.80;;;;;;;6.82;83.42;97941.54;107934;1273;67252;-64
2021/11/09 02:04:51;;;;;;;13.00;8.00;;;;;;;6.82;83.29;97947.76;107861;1276;68504;-64
2021/11/09 02:07:23;;;;;;;11.20;7.90;;;;;;;6.82;83.31;97950.04;107837;1275;58901;-64
2021/11/09 02:09:54;;;;;;;18.60;12.50;;;;;;;6.81;83.42;97950.42;107899;1275;58872;-64
2021/11/09 02:12:24;;;;;;;16.70;10.90;;;;;;;6.76;84.55;97952.95;107892;1275;70721;-64
2021/11/09 02:14:58;;;;;;;13.60;9.40;;;;;;;6.74;84.16;97953.52;107836;1275;68642;-64
2021/11/09 02:17:32;;;;;;;13.90;10.00;;;;;;;6.73;84.76;97953.27;107870;1275;69433;-65
2021/11/09 02:20:03;;;;;;;13.60;8.80;;;;;;;6.74;84.21;97958.58;107913;1278;59379;-64
2021/11/09 02:22:34;;;;;;;11.80;8.10;;;;;;;6.75;83.85;97959.19;107880;1277;58825;-64
2021/11/09 02:25:08;;;;;;;11.20;7.40;;;;;;;6.77;83.55;97961.17;107718;1275;70753;-65
2021/11/09 02:27:39;;;;;;;10.40;7.70;;;;;;;6.79;83.45;97968.02;107913;1275;68557;-65
2021/11/09 02:30:13;;;;;;;15.80;9.10;;;;;;;6.80;83.50;97971.94;107784;1276;69485;-66
2021/11/09 02:32:43;;;;;;;12.00;8.30;;;;;;;6.80;83.59;97972.29;107666;1276;58992;-63
2021/11/09 02:35:13;;;;;;;;;;;;;;;6.79;83.68;97981.70;107882;1275;58923;-63
2021/11/09 02:37:44;;;;;;;14.00;9.20;;;;;;;6.78;83.69;97981.73;107919;1276;70582;-63
2021/11/09 02:40:14;;;;;;;15.70;10.60;;;;;;;6.77;83.66;97977.14;107721;1276;68115;-63
2021/11/09 02:42:48;;;;;;;18.30;12.50;;;;;;;6.75;83.53;97982.42;107888;1275;69457;-63
2021/11/09 02:45:26;;;;;;;14.90;9.10;;;;;;;6.73;83.72;97982.32;107874;1276;58897;-63
2021/11/09 02:48:06;;;;;;;14.10;9.40;;;;;;;6.72;83.61;97982.05;107925;1275;58934;-66
2021/11/09 02:50:40;;;;;;;14.30;9.20;;;;;;;6.72;83.64;97988.11;107887;1277;70559;-64
2021/11/09 02:53:16;;;;;;;16.20;10.10;;;;;;;6.71;83.71;97989.90;107158;1276;882490;-64
2021/11/09 02:55:53;;;;;;;13.70;9.50;;;;;;;6.70;83.67;97985.96;107897;1275;69262;-63
2021/11/09 03:06:40;;;;;;;13.60;8.40;;;;;;;6.60;83.75;97986.77;107754;1276;67854;-63
2021/11/09 03:09:21;;;;;;;12.60;8.10;;;;;;;6.57;83.87;97980.86;107747;1275;68606;-63
2021/11/09 03:11:59;;;;;;;17.50;11.90;;;;;;;6.55;83.83;97974.52;107902;1275;58992;-64
2021/11/09 03:14:28;;;;;;;18.60;11.80;;;;;;;6.53;83.69;97968.75;107622;1278;58964;-64
2021/11/09 03:17:02;;;;;;;;;;;;;;;6.53;83.70;97971.71;107887;1275;69759;-64
2021/11/09 03:44:52;;;;;;;13.90;9.20;;;;;;;6.46;84.07;98007.16;107852;1275;69953;-64
2021/11/09 03:47:22;;;;;;;16.20;10.90;;;;;;;6.47;83.85;98010.06;107848;1275;68823;-64
2021/11/09 03:49:53;;;;;;;13.20;7.60;;;;;;;6.45;83.94;98002.36;107663;1276;69440;-64
2021/11/09 03:52:27;;;;;;;13.20;8.10;;;;;;;6.45;83.88;98006.73;107699;1275;59024;-64
2021/11/09 03:55:03;;;;;;;16.80;10.60;;;;;;;6.45;83.90;98009.98;107878;1275;58950;-63
2021/11/09 03:57:37;;;;;;;11.20;7.70;;;;;;;6.43;83.95;98015.13;107713;1274;68811;-63
2021/11/09 04:00:16;;;;;;;14.20;9.10;;;;;;;6.42;84.00;98016.70;107872;1275;68609;-64
2021/11/09 04:02:55;;;;;;;19.30;12.60;;;;;;;6.41;84.02;98013.61;107852;1275;69540;-64
2021/11/09 04:05:32;;;;;;;9.40;6.00;;;;;;;6.39;84.23;98008.39;107763;1275;58980;-64
2021/11/09 04:08:13;;;;;;;14.00;9.20;;;;;;;6.41;83.96;97997.57;107903;1274;58832;-64
2021/11/09 04:18:45;;;;;;;11.90;8.10;;;;;;;6.23;83.55;98008.95;107839;1272;58970;-64
2021/11/09 04:24:30;;;;;;;12.40;7.50;;;;;;;6.25;84.21;97999.52;107979;1272;70839;-64
2021/11/09 04:41:06;;;;;;;11.30;6.60;;;;;;;6.20;84.26;98027.27;107881;1272;67513;-64
2021/11/09 05:10:25;;;;;;;18.90;12.70;;;;;;;5.90;86.40;98057.11;107829;1272;69677;-64
2021/11/09 05:12:54;;;;;;;19.90;12.40;;;;;;;5.72;87.19;98070.31;107705;1275;58911;-64
2021/11/09 05:15:24;;;;;;;18.30;12.60;;;;;;;5.61;87.33;98078.39;107895;1272;58915;-63
2021/11/09 05:17:54;;;;;;;21.40;14.00;;;;;;;5.58;87.39;98079.04;107888;1271;69984;-64
2021/11/09 05:20:25;;;;;;;18.30;10.70;;;;;;;5.53;86.88;98075.47;107948;1272;68657;-64
2021/11/09 05:22:54;;;;;;;22.80;13.90;;;;;;;5.52;86.95;98076.03;107977;1270;68853;-64
2021/11/09 05:25:24;;;;;;;20.80;12.40;;;;;;;5.45;87.39;98088.41;107897;1271;59007;-64
2021/11/09 05:27:55;;;;;;;23.10;14.60;;;;;;;5.41;87.64;98097.23;107940;1274;58930;-64
2021/11/09 05:30:25;;;;;;;25.50;14.10;;;;;;;5.34;88.44;98105.13;107875;1271;69861;-64
2021/11/09 05:32:59;;;;;;;21.20;13.80;;;;;;;5.34;88.47;98117.73;107897;1271;68605;-64
2021/11/09 05:35:28;;;;;;;22.80;14.50;;;;;;;5.39;88.31;98122.20;107911;1271;69325;-64
2021/11/09 05:37:59;;;;;;;24.80;15.40;;;;;;;5.39;88.26;98129.63;107970;1271;59173;-65
2021/11/09 05:40:36;;;;;;;25.50;15.60;;;;;;;5.35;88.14;98125.80;107914;1273;58887;-65
2021/11/09 05:43:07;;;;;;;23.20;12.20;;;;;;;5.34;88.13;98124.47;107928;1272;70819;-64
2021/11/09 05:45:36;;;;;;;24.90;13.40;;;;;;;5.37;88.11;98126.78;107916;1272;68684;-64
2021/11/09 05:48:06;;;;;;;21.90;12.20;;;;;;;5.37;87.94;98129.72;107928;1272;69284;-64
2021/11/09 05:50:36;;;;;;;19.90;11.80;;;;;;;5.35;88.07;98134.61;108022;1272;58837;-64
2021/11/09 05:53:05;;;;;;;20.30;13.00;;;;;;;5.35;87.93;98140.66;107934;1271;58907;-65
2021/11/09 05:55:35;;;;;;;20.70;13.80;;;;;;;5.33;87.92;98146.11;107949;1272;71455;-64
2021/11/09 05:58:04;;;;;;;23.30;15.10;;;;;;;5.27;88.31;98150.87;107955;1270;68627;-65
2021/11/09 06:00:33;;;;;;;26.70;16.90;;;;;;;5.34;88.09;98157.31;107986;1272;70176;-65
2021/11/09 06:03:03;;;;;;;21.60;14.20;;;;;;;5.31;88.16;98153.98;107939;1272;59401;-65
2021/11/09 06:05:32;;;;;;;17.70;11.40;;;;;;;5.33;87.89;98152.02;107941;1270;58967;-65
2021/11/09 06:08:01;;;;;;;22.10;13.40;;;;;;;5.37;87.56;98153.05;107935;1272;69970;-64
2021/11/09 06:10:31;;;;;;;22.60;14.30;;;;;;;5.36;87.79;98162.41;107934;1272;68753;-65
2021/11/09 06:13:00;;;;;;;20.90;13.90;;;;;;;5.27;88.20;98169.88;107911;1271;68697;-65
2021/11/09 06:15:30;;;;;;;21.10;13.60;;;;;;;5.23;88.61;98180.40;107979;1270;58929;-65
2021/11/09 06:17:59;;;;;;;21.10;13.40;;;;;;;5.21;88.52;98186.20;107873;1270;58916;-64
2021/11/09 06:20:28;;;;;;;18.40;10.70;;;;;;;5.10;88.34;98187.80;107978;1272;70016;-65
2021/11/09 06:23:00;;;;;;;21.50;13.40;;;;;;;5.15;88.54;98184.70;107925;1272;68154;-64
2021/11/09 06:25:29;;;;;;;22.00;13.50;;;;;;;5.10;88.77;98193.16;107937;1272;69483;-64
2021/11/09 06:27:59;;;;;;;25.90;14.70;;;;;;;5.01;88.57;98196.80;107961;1272;58910;-64
2021/11/09 06:30:28;;;;;;;15.10;9.80;;;;;;;4.99;88.64;98208.45;107977;1272;58846;-65
2021/11/09 06:32:58;;;;;;;15.00;9.70;;;;;;;4.98;88.05;98210.19;107872;1275;70813;-65
2021/11/09 06:35:27;;;;;;;18.00;10.10;;;;;;;5.03;87.84;98217.79;107975;1272;67642;-65
2021/11/09 06:37:57;;;;;;;15.10;9.10;;;;;;;5.02;87.50;98228.36;107921;1272;68479;-65
2021/11/09 06:40:26;;;;;;;13.80;9.10;;;;;;;5.03;87.64;98233.67;107885;1272;58874;-63
2021/11/09 06:42:55;;;;;;;13.90;8.30;;;;;;;5.06;87.39;98242.21;107869;1272;58954;-64
2021/11/09 06:45:25;;;;;;;15.40;9.30;;;;;;;5.04;87.07;98253.32;107947;1272;71287;-63
2021/11/09 06:47:55;;;;;;;;;;;;;;;5.05;87.51;98255.36;107850;1272;68701;-63
2021/11/09 06:50:24;;;;;;;15.70;9.80;;;;;;;4.99;87.77;98263.01;107848;1274;69424;-63
2021/11/09 06:52:55;;;;;;;13.90;8.80;;;;;;;4.97;87.23;98267.08;107886;1269;58958;-63
2021/11/09 06:55:24;;;;;;;13.20;9.00;;;;;;;4.97;86.79;98271.39;107833;1275;58870;-63
2021/11/09 06:57:54;;;;;;;;;;;;;;;4.99;86.76;98277.70;107977;1272;70109;-63
2021/11/09 07:00:24;;;;;;;18.70;9.50;;;;;;;5.00;86.87;98275.77;107950;1272;69313;-64
2021/11/09 07:02:53;;;;;;;17.10;9.50;;;;;;;4.93;87.37;98281.23;107881;1272;68635;-64
2021/11/09 07:05:22;;;;;;;16.30;9.80;;;;;;;4.96;87.54;98285.42;107955;1272;58967;-64
2021/11/09 07:07:52;;;;;;;13.90;7.50;;;;;;;4.93;87.18;98282.61;107892;1274;58947;-64
2021/11/09 07:10:22;;;;;;;8.90;6.00;;;;;;;5.03;86.35;98283.79;107959;1268;70119;-64
2021/11/09 07:12:52;;;;;;;7.60;5.40;;;;;;;5.01;85.58;98288.02;107908;1272;67958;-64
2021/11/09 07:15:21;;;;;;;9.10;6.10;;;;;;;4.94;85.69;98285.15;107763;1274;68601;-64
2021/11/09 07:17:50;;;;;;;8.30;5.80;;;;;;;4.88;85.89;98286.77;107949;1272;59015;-64
2021/11/09 07:20:21;;;;;;;7.10;5.30;;;;;;;4.82;84.97;98291.95;107961;1271;58904;-64
2021/11/09 07:22:51;;;;;;;10.20;5.70;;;;;;;4.83;85.73;98301.79;108001;1272;70842;-64
2021/11/09 07:25:20;;;;;;;8.70;5.90;;;;;;;4.82;86.20;98300.96;107980;1272;67932;-63
2021/11/09 07:27:49;;;;;;;8.00;5.00;;;;;;;4.76;86.09;98300.82;107979;1272;70175;-63
2021/11/09 07:30:19;;;;;;;6.90;5.00;;;;;;;4.79;85.56;98297.27;107912;1272;58999;-63
2021/11/09 07:32:48;;;;;;;5.70;4.40;;;;;;;4.84;85.47;98292.43;107826;1275;59050;-64
2021/11/09 07:35:18;;;;;;;6.90;5.40;;;;;;;4.84;84.96;98300.89;107974;1271;70481;-63
2021/11/09 07:37:47;;;;;;;7.70;5.20;;;;;;;4.82;85.32;98307.67;107978;1272;68860;-64
2021/11/09 07:40:17;;;;;;;7.30;4.70;;;;;;;4.72;84.73;98312.54;107948;1272;69522;-64
2021/11/09 07:42:47;;;;;;;6.50;4.30;;;;;;;4.74;85.18;98301.74;107962;1272;58900;-64
2021/11/09 07:45:18;;;;;;;;;;;;;;;4.78;85.08;98294.55;108005;1272;58894;-62
2021/11/09 07:47:47;;;;;;;6.60;4.10;;;;;;;4.73;84.96;98289.02;107956;1272;70055;-63
2021/11/09 07:50:17;;;;;;;6.80;4.50;;;;;;;4.75;85.12;98290.33;107979;1272;69033;-63
2021/11/09 07:52:49;;;;;;;6.40;4.20;;;;;;;4.70;85.02;98303.80;107924;1272;67970;-63
2021/11/09 07:55:20;;;;;;;7.20;4.50;;;;;;;4.71;85.19;98313.95;107915;1272;58899;-64
2021/11/09 07:57:55;;;;;;;6.00;4.20;;;;;;;4.67;85.24;98337.03;107908;1275;58876;-64
2021/11/09 08:00:27;;;;;;;6.20;4.60;;;;;;;4.73;85.49;98349.47;107941;1272;71146;-65
2021/11/09 08:03:05;;;;;;;8.10;4.90;;;;;;;4.66;85.32;98333.80;107937;1271;68869;-64
2021/11/09 08:05:55;;;;;;;7.50;4.80;;;;;;;4.64;85.41;98344.74;107848;1273;69291;-63
2021/11/09 08:08:33;;;;;;;7.70;5.10;;;;;;;4.65;85.40;98362.17;107953;1272;58960;-64
2021/11/09 08:11:04;;;;;;;5.80;4.60;;;;;;;4.64;85.66;98366.52;108018;1272;58931;-64
2021/11/09 08:13:34;;;;;;;5.50;4.00;;;;;;;4.67;85.64;98360.03;107931;1272;70690;-64
2021/11/09 08:16:03;;;;;;;8.30;5.00;;;;;;;4.70;86.17;98353.33;107970;1272;68419;-63
2021/11/09 08:18:33;;;;;;;6.50;4.00;;;;;;;4.72;85.95;98345.53;107883;1272;69565;-64
2021/11/09 08:21:02;;;;;;;6.50;4.00;;;;;;;4.81;85.62;98354.86;107756;1274;58952;-64
2021/11/09 08:23:32;;;;;;;7.30;5.10;;;;;;;4.82;85.50;98358.98;107990;1272;58925;-64
2021/11/09 08:26:01;;;;;;;9.70;5.10;;;;;;;4.79;85.11;98372.73;107866;1272;70776;-64
2021/11/09 08:28:33;;;;;;;8.90;6.00;;;;;;;4.85;84.85;98380.29;108039;1272;69327;-65
2021/11/09 08:31:08;;;;;;;7.90;6.10;;;;;;;4.83;85.37;98385.02;108007;1272;69225;-64
2021/11/09 08:33:38;;;;;;;8.80;5.20;;;;;;;4.77;85.20;98394.04;107955;1270;58890;-64
2021/11/09 08:36:10;;;;;;;12.10;8.60;;;;;;;4.79;85.40;98386.73;107903;1273;58964;-64
2021/11/09 08:38:40;;;;;;;11.20;7.10;;;;;;;4.82;85.32;98391.98;107978;1272;69981;-65
2021/11/09 08:41:12;;;;;;;10.90;7.70;;;;;;;4.78;85.73;98389.68;107980;1270;67799;-64
2021/11/09 08:43:53;;;;;;;10.30;7.20;;;;;;;4.80;85.76;98384.42;107957;1272;69487;-64
2021/11/09 08:46:24;;;;;;;10.00;7.10;;;;;;;4.79;85.48;98376.36;107890;1272;58925;-64
2021/11/09 08:48:54;;;;;;;12.50;8.10;;;;;;;4.85;85.48;98371.66;108004;1271;58893;-64
2021/11/09 08:51:23;;;;;;;11.80;8.60;;;;;;;4.85;85.65;98373.21;107898;1275;70995;-64
2021/11/09 09:04:33;;;;;;;9.10;6.40;;;;;;;4.92;84.48;98374.17;107817;1272;70928;-64
2021/11/09 09:07:03;;;;;;;8.60;6.10;;;;;;;4.92;84.63;98381.61;107876;1272;69245;-64
2021/11/09 09:09:32;;;;;;;10.30;6.70;;;;;;;4.93;84.85;98380.02;107980;1272;69451;-64
2021/11/09 09:12:03;;;;;;;10.00;7.00;;;;;;;4.91;85.14;98385.79;107947;1272;58989;-64
2021/11/09 09:14:33;;;;;;;9.60;6.60;;;;;;;4.97;85.01;98391.44;107905;1272;58868;-64
2021/11/09 09:17:07;;;;;;;9.60;6.20;;;;;;;4.99;84.88;98390.16;107974;1272;71325;-64
2021/11/09 09:19:48;;;;;;;8.50;6.00;;;;;;;4.92;84.93;98394.04;108047;1272;69066;-64
2021/11/09 09:22:19;;;;;;;11.60;7.80;;;;;;;4.94;84.78;98406.96;107978;1272;69848;-64
2021/11/09 09:25:06;;;;;;;9.90;7.50;;;;;;;4.99;85.27;98409.55;107979;1270;58935;-63
2021/11/09 09:55:38;;;;;;;10.90;6.20;;;;;;;5.01;85.25;98424.82;107904;1272;58909;-65
2021/11/09 09:58:13;;;;;;;13.90;8.10;;;;;;;5.04;85.37;98428.36;107954;1272;70870;-64
2021/11/09 10:00:44;;;;;;;11.90;8.00;;;;;;;5.07;84.76;98429.10;108002;1272;67893;-64
2021/11/09 10:03:13;;;;;;;10.10;7.30;;;;;;;5.16;85.19;98431.39;108001;1272;69041;-65
2021/11/09 10:05:43;;;;;;;8.90;6.30;;;;;;;5.25;85.05;98435.39;107875;1275;58907;-64
2021/11/09 10:08:17;;;;;;;12.10;7.00;;;;;;;5.32;85.04;98437.41;107999;1272;58898;-64
2021/11/09 10:10:47;;;;;;;10.00;6.30;;;;;;;5.26;85.39;98436.05;107946;1272;70575;-64
2021/11/09 10:13:23;;;;;;;11.70;7.10;;;;;;;5.25;84.60;98436.61;107982;1272;68053;-64
2021/11/09 10:15:55;;;;;;;10.90;6.50;;;;;;;5.29;85.21;98440.80;107970;1272;69893;-64
2021/11/09 10:18:24;;;;;;;16.10;8.50;;;;;;;5.52;84.74;98444.46;108017;1272;58919;-64
2021/11/09 10:20:57;;;;;;;16.40;10.10;;;;;;;5.76;84.45;98444.81;108016;1272;58913;-64
2021/11/09 10:23:29;;;;;;;18.80;10.90;;;;;;;5.89;82.88;98448.49;107987;1272;70792;-64
2021/11/09 10:26:18;;;;;;;16.60;10.60;;;;;;;5.81;82.22;98452.40;108016;1272;67825;-64
2021/11/09 10:28:47;;;;;;;17.00;10.60;;;;;;;5.78;82.82;98452.87;107955;1272;68513;-64
2021/11/09 10:31:16;;;;;;;21.10;11.80;;;;;;;5.77;82.59;98454.96;107961;1272;58947;-65
2021/11/09 10:33:50;;;;;;;16.20;9.50;;;;;;;5.80;82.81;98461.12;107934;1272;58926;-65
2021/11/09 10:36:33;;;;;;;18.60;11.40;;;;;;;5.90;82.53;98468.52;107907;1272;70043;-65
2021/11/09 10:39:22;;;;;;;21.40;12.30;;;;;;;6.00;82.43;98466.97;107992;1272;67618;-65
2021/11/09 10:42:27;;;;;;;21.60;11.90;;;;;;;6.08;82.15;98470.45;107958;1272;69354;-65
2021/11/09 10:45:02;;;;;;;23.00;12.60;;;;;;;6.21;81.87;98472.58;107400;1278;59156;-65
2021/11/09 10:47:33;;;;;;;20.80;11.80;;;;;;;6.29;80.91;98477.29;107365;1281;58967;-65
2021/11/09 10:50:12;;;;;;;26.90;15.20;;;;;;;6.38;81.27;98479.88;107374;1280;71086;-65
2021/11/09 10:52:42;;;;;;;27.80;16.20;;;;;;;6.47;80.11;98485.60;107377;1282;67744;-65
2021/11/09 10:55:33;;;;;;;24.00;13.70;;;;;;;6.52;79.12;98488.69;106953;1279;618825;-65
2021/11/09 11:05:51;;;;;;;23.60;14.30;;;;;;;7.15;78.50;98487.35;107408;1280;68151;-65
2021/11/09 11:08:20;;;;;;;21.50;12.10;;;;;;;7.32;77.62;98491.45;107346;1280;70043;-65
2021/11/09 11:10:49;;;;;;;18.10;10.90;;;;;;;7.52;77.88;98492.88;107359;1280;58829;-65
2021/11/09 11:13:20;;;;;;;17.90;11.20;;;;;;;7.73;77.10;98497.52;107439;1280;58946;-64
2021/11/09 11:16:10;;;;;;;25.00;16.00;;;;;;;7.99;76.50;98503.62;107463;1280;70760;-63
2021/11/09 11:18:43;;;;;;;19.70;12.50;;;;;;;8.26;75.05;98507.77;107502;1275;67929;-63
2021/11/09 11:21:15;;;;;;;19.20;12.30;;;;;;;8.57;75.15;98511.95;107926;1272;68755;-64
2021/11/09 11:23:45;;;;;;;15.60;9.90;;;;;;;9.14;74.39;98521.17;107914;1266;58907;-64
2021/11/09 11:26:15;;;;;;;20.60;12.30;;;;;;;9.49;72.87;98525.34;107950;1272;58936;-64
2021/11/09 11:28:48;;;;;;;20.80;13.10;;;;;;;9.52;69.49;98530.23;107956;1272;70836;-65
2021/11/09 11:31:20;;;;;;;16.20;10.10;;;;;;;9.38;68.09;98535.45;108005;1272;68609;-65
2021/11/09 11:33:50;;;;;;;16.30;10.40;;;;;;;9.35;69.02;98537.34;107903;1272;69348;-66
2021/11/09 11:36:20;;;;;;;17.60;12.00;;;;;;;9.31;69.43;98537.56;107938;1272;58910;-63
2021/11/09 11:38:53;;;;;;;18.50;11.60;;;;;;;9.32;69.42;98542.90;108009;1272;58897;-64
2021/11/09 11:41:28;;;;;;;14.90;10.10;;;;;;;9.38;69.32;98548.16;107976;1272;70072;-64
2021/11/09 11:43:59;;;;;;;15.50;9.10;;;;;;;9.42;69.81;98547.59;107999;1272;68630;-64
2021/11/09 11:46:31;;;;;;;18.10;11.40;;;;;;;9.46;68.98;98549.52;107944;1272;69991;-65
2021/11/09 11:49:12;;;;;;;15.80;11.20;;;;;;;9.43;68.45;98561.31;107918;1272;59341;-65
2021/11/09 11:51:43;;;;;;;16.90;11.00;;;;;;;9.34;67.11;98567.15;107907;1271;58977;-65
2021/11/09 11:54:17;;;;;;;13.90;9.10;;;;;;;9.30;69.82;98571.72;107887;1271;71364;-65
2021/11/09 11:56:46;;;;;;;14.50;10.00;;;;;;;9.23;70.21;98577.63;107887;1271;67947;-65
2021/11/09 11:59:24;;;;;;;16.90;10.70;;;;;;;9.10;67.40;98586.04;107922;1272;69972;-65
2021/11/09 12:01:58;;;;;;;20.40;13.10;;;;;;;8.99;67.30;98583.67;107836;1272;58904;-65
2021/11/09 12:04:48;;;;;;;19.50;12.50;;;;;;;8.81;67.92;98588.65;107921;1272;58868;-63
2021/11/09 12:07:22;;;;;;;21.90;14.10;;;;;;;8.56;67.09;98593.84;107974;1272;70587;-64
2021/11/09 12:10:05;;;;;;;23.00;14.80;;;;;;;8.21;68.07;98594.69;107937;1272;68653;-64
2021/11/09 12:12:35;;;;;;;21.30;12.80;;;;;;;7.94;69.05;98600.36;107932;1272;67702;-65
2021/11/09 12:15:06;;;;;;;18.40;12.10;;;;;;;7.60;70.73;98605.29;107959;1272;58878;-64
2021/11/09 12:17:41;;;;;;;16.50;10.40;;;;;;;7.61;71.15;98606.29;107961;1272;58904;-64
2021/11/09 12:20:15;;;;;;;20.10;11.20;;;;;;;7.62;71.63;98602.42;107869;1271;70574;-64
2021/11/09 12:22:54;;;;;;;18.00;12.10;;;;;;;7.60;72.11;98607.20;107935;1274;68003;-65
2021/11/09 12:25:33;;;;;;;19.60;13.80;;;;;;;7.63;72.35;98607.77;107876;1271;69377;-64
2021/11/09 12:28:12;;;;;;;22.70;14.60;;;;;;;7.65;73.03;98606.27;107962;1271;58898;-64
2021/11/09 12:30:49;;;;;;;20.00;11.80;;;;;;;7.67;72.05;98608.83;107772;1272;58992;-64
2021/11/09 12:33:31;;;;;;;21.40;13.60;;;;;;;7.71;73.47;98613.88;107927;1272;70014;-64
2021/11/09 12:36:12;;;;;;;18.10;12.40;;;;;;;7.59;72.90;98615.20;107924;1272;68454;-63
2021/11/09 12:38:43;;;;;;;21.70;13.80;;;;;;;7.57;73.73;98621.54;107916;1271;70277;-64
2021/11/09 12:41:13;;;;;;;21.20;12.80;;;;;;;7.56;74.35;98623.30;107971;1272;58961;-63
2021/11/09 12:43:48;;;;;;;20.80;13.90;;;;;;;7.55;74.94;98631.51;107914;1272;58886;-63
2021/11/09 12:46:39;;;;;;;23.20;14.40;;;;;;;7.45;75.68;98636.44;107869;1270;70744;-64
2021/11/09 12:49:16;;;;;;;22.80;14.00;;;;;;;7.22;76.18;98645.88;107930;1272;67088;-64
2021/11/09 12:51:51;;;;;;;17.20;11.70;;;;;;;7.26;76.63;98653.51;107954;1272;70300;-64
2021/11/09 12:54:28;;;;;;;22.00;13.80;;;;;;;7.30;76.34;98653.52;108021;1272;58958;-64
2021/11/09 12:57:04;;;;;;;24.20;14.50;;;;;;;7.22;77.00;98650.90;108041;1272;59297;-65
2021/11/09 13:02:51;;;;;;;17.60;9.90;;;;;;;7.24;77.36;98650.48;107994;1272;69253;-63
2021/11/09 13:05:13;;;;;;;19.20;12.80;;;;;;;7.37;76.56;98657.06;107961;1272;68858;-64
2021/11/09 13:07:47;;;;;;;19.40;13.30;;;;;;;7.41;76.53;98662.94;107913;1272;58963;-64
2021/11/09 13:10:22;;;;;;;22.90;14.50;;;;;;;7.42;76.19;98661.89;107957;1272;58900;-64
2021/11/09 13:12:54;;;;;;;19.70;12.20;;;;;;;7.45;76.38;98669.92;107881;1272;70795;-64
2021/11/09 13:15:23;;;;;;;18.40;12.40;;;;;;;7.50;75.97;98669.02;107951;1272;67994;-64
2021/11/09 13:18:02;;;;;;;24.10;14.00;;;;;;;7.55;75.96;98671.41;108017;1272;69254;-64
2021/11/09 13:20:36;;;;;;;17.50;10.20;;;;;;;7.60;75.79;98674.34;107997;1272;58944;-64
2021/11/09 13:23:18;;;;;;;18.10;12.20;;;;;;;7.62;75.96;98676.52;108030;1272;58891;-64
2021/11/09 13:25:57;;;;;;;17.90;12.40;;;;;;;7.67;74.65;98676.31;108018;1272;70887;-66
2021/11/09 13:28:34;;;;;;;20.30;12.10;;;;;;;7.61;75.14;98679.86;107960;1270;68566;-65
2021/11/09 13:31:09;;;;;;;18.30;12.80;;;;;;;7.79;75.07;98683.11;107979;1269;69565;-64
2021/11/09 13:33:46;;;;;;;19.10;11.80;;;;;;;7.75;74.97;98686.55;107927;1271;58872;-65
2021/11/09 13:36:21;;;;;;;18.00;10.80;;;;;;;7.59;74.81;98686.67;107892;1272;58860;-64
2021/11/09 13:38:51;;;;;;;15.20;9.20;;;;;;;7.67;74.78;98687.77;107891;1271;70003;-64
2021/11/09 13:41:33;;;;;;;16.60;10.10;;;;;;;7.83;74.29;98693.52;107914;1275;69021;-65
2021/11/09 13:44:10;;;;;;;17.10;9.20;;;;;;;7.86;74.21;98699.13;107908;1271;69815;-64
2021/11/09 13:46:41;;;;;;;16.80;10.60;;;;;;;8.02;73.68;98697.20;107933;1272;58906;-64
2021/11/09 13:49:17;;;;;;;12.80;8.60;;;;;;;8.32;73.29;98700.51;107976;1272;58893;-64
2021/11/09 13:51:58;;;;;;;16.10;10.50;;;;;;;8.44;72.12;98699.65;107899;1272;70586;-64
2021/11/09 13:54:35;;;;;;;14.80;9.10;;;;;;;8.35;72.40;98706.10;107987;1272;68614;-64
2021/11/09 13:57:09;;;;;;;15.10;10.00;;;;;;;7.99;73.08;98711.94;107981;1272;69355;-64
2021/11/09 13:59:39;;;;;;;17.00;10.80;;;;;;;7.87;73.70;98715.23;107987;1272;58945;-64
2021/11/09 14:02:31;;;;;;;15.50;9.60;;;;;;;7.69;74.62;98716.16;107825;1273;58971;-64
2021/11/09 14:08:28;;;;;;;16.00;9.30;;;;;;;7.62;74.83;98719.00;107897;1270;67993;-64